Portada
METAR-TAF:

METAR-TAF

Aeropuertos :

Aeropuerto de Almería

Almería, España

latitud: 36-51N, longitud: 002-23W, altitud: 15 m

Observación

El informe se hizo hace 38 minutos, a las 22:30 UTC
Viento 4 kt del norte
Temperatura 10°C
Humedad 87%
Presión 1024 hPa
Visibilidad 10 km o más

METAR: LEAM 152230Z AUTO 36004KT 9999 NCD 10/08 Q1024

Hora: 00:08 (23:08 UTC)

Pronóstico

El informe se hizo hace 3 horas y 8 minutos, a las 20:00 UTC
Pronóstico válido del 15 a las 21 UTC al 16 a las 21 UTC
Viento 5 kt del norte-noroeste
Visibilidad 10 km o más
sin nubes por debajo de 1500 m y sin presencia de cumulonimbus.
Evolucionando progresivamente
del 16 a las 10 UTC al 16 a las 12 UTC
Viento 12 kt del suroeste
Probabilidad 30% :
Temporalmente
del 16 a las 12 UTC al 16 a las 17 UTC
Viento 17 kt del suroeste con ráfagas de 28 kt

TAF: LEAM 152000Z 1521/1621 34005KT CAVOK TX20/1613Z TN09/1607Z BECMG 1610/1612 23012KT PROB30 TEMPO 1612/1617 22017G28KT

Observaciones y pronósticos meteorológicos de más de 4000 aeropuertos (mensajes METAR y TAF).

Los puntos amarillos y rojos representan las estaciones disponibles.

Ponga el ratón en el punto deseado para ver el nombre de la estación.

Haga clic para ver las observaciones y los pronósticos meteorológicos.

Para cambiar el mapa : haga clic en los botones verdes con una cruz de color negro para hacer un zoom, en el botón verde con un guión para alejar o en las flechas verdes para mapas adyacentes.


METAR-TAF: